sensor_id;sensor_type;location;lat;lon;timestamp;P1;durP1;ratioP1;P2;durP2;ratioP2
55134;SDS011;41031;44.750;11.308;2023-06-14T00:00:32;6.83;;;6.07;;
55134;SDS011;41031;44.750;11.308;2023-06-14T00:03:01;6.07;;;5.47;;
55134;SDS011;41031;44.750;11.308;2023-06-14T00:05:30;6.27;;;5.13;;
55134;SDS011;41031;44.750;11.308;2023-06-14T00:08:00;7.70;;;5.50;;
55134;SDS011;41031;44.750;11.308;2023-06-14T00:10:27;6.13;;;5.53;;
55134;SDS011;41031;44.750;11.308;2023-06-14T00:12:57;8.73;;;6.03;;
55134;SDS011;41031;44.750;11.308;2023-06-14T00:15:26;7.17;;;6.10;;
55134;SDS011;41031;44.750;11.308;2023-06-14T00:17:54;6.67;;;5.50;;
55134;SDS011;41031;44.750;11.308;2023-06-14T00:20:23;5.50;;;4.90;;
55134;SDS011;41031;44.750;11.308;2023-06-14T00:22:50;6.27;;;5.20;;
55134;SDS011;41031;44.750;11.308;2023-06-14T00:25:18;6.30;;;5.00;;
55134;SDS011;41031;44.750;11.308;2023-06-14T00:27:55;6.43;;;4.60;;
55134;SDS011;41031;44.750;11.308;2023-06-14T00:30:23;5.37;;;4.87;;
55134;SDS011;41031;44.750;11.308;2023-06-14T00:32:51;6.37;;;4.90;;
55134;SDS011;41031;44.750;11.308;2023-06-14T00:35:18;5.87;;;4.83;;
55134;SDS011;41031;44.750;11.308;2023-06-14T00:37:45;6.00;;;5.23;;
55134;SDS011;41031;44.750;11.308;2023-06-14T00:40:12;12.77;;;4.47;;
55134;SDS011;41031;44.750;11.308;2023-06-14T00:42:40;13.07;;;5.73;;
55134;SDS011;41031;44.750;11.308;2023-06-14T00:45:09;11.53;;;5.40;;
55134;SDS011;41031;44.750;11.308;2023-06-14T00:47:36;8.23;;;5.30;;
55134;SDS011;41031;44.750;11.308;2023-06-14T00:50:06;9.50;;;5.63;;
55134;SDS011;41031;44.750;11.308;2023-06-14T00:52:33;5.53;;;4.40;;
55134;SDS011;41031;44.750;11.308;2023-06-14T00:55:01;11.23;;;5.10;;
55134;SDS011;41031;44.750;11.308;2023-06-14T00:57:28;6.60;;;5.50;;
55134;SDS011;41031;44.750;11.308;2023-06-14T00:59:56;6.97;;;4.97;;
55134;SDS011;41031;44.750;11.308;2023-06-14T01:02:23;5.57;;;5.07;;
55134;SDS011;41031;44.750;11.308;2023-06-14T01:04:50;11.70;;;5.93;;
55134;SDS011;41031;44.750;11.308;2023-06-14T01:12:27;6.80;;;5.40;;
55134;SDS011;41031;44.750;11.308;2023-06-14T01:14:56;6.10;;;5.30;;
55134;SDS011;41031;44.750;11.308;2023-06-14T01:17:25;8.07;;;5.67;;
55134;SDS011;41031;44.750;11.308;2023-06-14T01:19:53;8.73;;;5.07;;
55134;SDS011;41031;44.750;11.308;2023-06-14T01:22:25;6.13;;;5.33;;
55134;SDS011;41031;44.750;11.308;2023-06-14T01:24:54;12.90;;;5.77;;
55134;SDS011;41031;44.750;11.308;2023-06-14T01:27:24;18.47;;;8.03;;
55134;SDS011;41031;44.750;11.308;2023-06-14T01:29:55;19.47;;;8.90;;
55134;SDS011;41031;44.750;11.308;2023-06-14T01:32:24;23.77;;;9.07;;
55134;SDS011;41031;44.750;11.308;2023-06-14T01:34:54;17.10;;;9.07;;
55134;SDS011;41031;44.750;11.308;2023-06-14T01:37:21;17.20;;;8.10;;
55134;SDS011;41031;44.750;11.308;2023-06-14T01:39:49;14.77;;;7.73;;
55134;SDS011;41031;44.750;11.308;2023-06-14T01:42:18;12.73;;;7.60;;
55134;SDS011;41031;44.750;11.308;2023-06-14T01:44:46;10.43;;;7.87;;
55134;SDS011;41031;44.750;11.308;2023-06-14T01:47:14;13.87;;;7.60;;
55134;SDS011;41031;44.750;11.308;2023-06-14T01:49:42;11.93;;;8.33;;
55134;SDS011;41031;44.750;11.308;2023-06-14T01:52:09;11.60;;;8.30;;
55134;SDS011;41031;44.750;11.308;2023-06-14T01:54:36;9.37;;;8.07;;
55134;SDS011;41031;44.750;11.308;2023-06-14T01:57:08;11.53;;;8.60;;
55134;SDS011;41031;44.750;11.308;2023-06-14T01:59:37;14.07;;;9.00;;
55134;SDS011;41031;44.750;11.308;2023-06-14T02:02:04;12.87;;;9.00;;
55134;SDS011;41031;44.750;11.308;2023-06-14T02:04:31;22.83;;;8.73;;
55134;SDS011;41031;44.750;11.308;2023-06-14T02:06:59;11.63;;;8.70;;
55134;SDS011;41031;44.750;11.308;2023-06-14T02:09:26;13.97;;;10.40;;
55134;SDS011;41031;44.750;11.308;2023-06-14T02:11:53;16.37;;;10.17;;
55134;SDS011;41031;44.750;11.308;2023-06-14T02:14:20;14.63;;;10.43;;
55134;SDS011;41031;44.750;11.308;2023-06-14T02:16:47;19.17;;;9.67;;
55134;SDS011;41031;44.750;11.308;2023-06-14T02:19:18;14.20;;;9.97;;
55134;SDS011;41031;44.750;11.308;2023-06-14T02:21:47;15.70;;;10.43;;
55134;SDS011;41031;44.750;11.308;2023-06-14T02:24:14;15.07;;;10.47;;
55134;SDS011;41031;44.750;11.308;2023-06-14T02:26:41;15.17;;;10.57;;
55134;SDS011;41031;44.750;11.308;2023-06-14T02:29:11;14.40;;;11.43;;
55134;SDS011;41031;44.750;11.308;2023-06-14T02:31:41;13.63;;;11.50;;
55134;SDS011;41031;44.750;11.308;2023-06-14T02:34:08;17.27;;;12.00;;
55134;SDS011;41031;44.750;11.308;2023-06-14T02:36:35;18.90;;;11.07;;
55134;SDS011;41031;44.750;11.308;2023-06-14T02:39:08;17.77;;;11.93;;
55134;SDS011;41031;44.750;11.308;2023-06-14T02:41:36;14.97;;;13.20;;
55134;SDS011;41031;44.750;11.308;2023-06-14T02:44:03;20.67;;;13.77;;
55134;SDS011;41031;44.750;11.308;2023-06-14T02:46:31;28.20;;;14.53;;
55134;SDS011;41031;44.750;11.308;2023-06-14T02:48:58;24.60;;;15.67;;
55134;SDS011;41031;44.750;11.308;2023-06-14T02:51:26;19.33;;;16.67;;
55134;SDS011;41031;44.750;11.308;2023-06-14T02:53:53;24.63;;;17.87;;
55134;SDS011;41031;44.750;11.308;2023-06-14T02:56:20;33.37;;;17.60;;
55134;SDS011;41031;44.750;11.308;2023-06-14T02:58:49;31.20;;;17.90;;
55134;SDS011;41031;44.750;11.308;2023-06-14T03:01:17;23.43;;;15.80;;
55134;SDS011;41031;44.750;11.308;2023-06-14T03:03:48;26.67;;;17.73;;
55134;SDS011;41031;44.750;11.308;2023-06-14T03:06:15;25.87;;;17.20;;
55134;SDS011;41031;44.750;11.308;2023-06-14T03:08:45;25.87;;;16.60;;
55134;SDS011;41031;44.750;11.308;2023-06-14T03:11:14;23.60;;;15.67;;
55134;SDS011;41031;44.750;11.308;2023-06-14T03:13:43;27.30;;;16.30;;
55134;SDS011;41031;44.750;11.308;2023-06-14T03:16:12;27.53;;;16.30;;
55134;SDS011;41031;44.750;11.308;2023-06-14T03:18:40;20.33;;;15.77;;
55134;SDS011;41031;44.750;11.308;2023-06-14T03:21:07;20.53;;;16.77;;
55134;SDS011;41031;44.750;11.308;2023-06-14T03:23:38;25.07;;;15.83;;
55134;SDS011;41031;44.750;11.308;2023-06-14T03:26:06;24.37;;;16.13;;
55134;SDS011;41031;44.750;11.308;2023-06-14T03:28:33;24.30;;;17.57;;
55134;SDS011;41031;44.750;11.308;2023-06-14T03:31:01;25.27;;;16.87;;
55134;SDS011;41031;44.750;11.308;2023-06-14T03:33:31;23.40;;;18.23;;
55134;SDS011;41031;44.750;11.308;2023-06-14T03:35:58;22.27;;;16.73;;
55134;SDS011;41031;44.750;11.308;2023-06-14T03:38:26;32.13;;;19.47;;
55134;SDS011;41031;44.750;11.308;2023-06-14T03:40:54;23.93;;;17.37;;
55134;SDS011;41031;44.750;11.308;2023-06-14T03:43:21;27.33;;;17.40;;
55134;SDS011;41031;44.750;11.308;2023-06-14T03:45:48;33.13;;;17.80;;
55134;SDS011;41031;44.750;11.308;2023-06-14T03:48:18;27.77;;;16.70;;
55134;SDS011;41031;44.750;11.308;2023-06-14T03:50:45;26.53;;;16.53;;
55134;SDS011;41031;44.750;11.308;2023-06-14T03:53:13;28.83;;;17.53;;
55134;SDS011;41031;44.750;11.308;2023-06-14T03:55:44;24.83;;;17.60;;
55134;SDS011;41031;44.750;11.308;2023-06-14T03:58:15;29.03;;;16.23;;
55134;SDS011;41031;44.750;11.308;2023-06-14T04:00:42;26.43;;;17.00;;
55134;SDS011;41031;44.750;11.308;2023-06-14T04:03:09;24.17;;;16.47;;
55134;SDS011;41031;44.750;11.308;2023-06-14T04:05:37;22.70;;;16.30;;
55134;SDS011;41031;44.750;11.308;2023-06-14T04:08:05;19.57;;;16.70;;
55134;SDS011;41031;44.750;11.308;2023-06-14T04:10:36;22.37;;;16.73;;
55134;SDS011;41031;44.750;11.308;2023-06-14T04:13:03;22.07;;;17.00;;
55134;SDS011;41031;44.750;11.308;2023-06-14T04:15:31;28.60;;;17.00;;
55134;SDS011;41031;44.750;11.308;2023-06-14T04:17:59;30.07;;;14.93;;
55134;SDS011;41031;44.750;11.308;2023-06-14T04:20:27;24.67;;;16.80;;
55134;SDS011;41031;44.750;11.308;2023-06-14T04:22:56;20.17;;;17.00;;
55134;SDS011;41031;44.750;11.308;2023-06-14T04:25:23;25.93;;;16.53;;
55134;SDS011;41031;44.750;11.308;2023-06-14T04:27:54;22.83;;;15.53;;
55134;SDS011;41031;44.750;11.308;2023-06-14T04:30:21;27.27;;;17.00;;
55134;SDS011;41031;44.750;11.308;2023-06-14T04:32:54;26.13;;;17.50;;
55134;SDS011;41031;44.750;11.308;2023-06-14T04:35:23;24.77;;;17.20;;
55134;SDS011;41031;44.750;11.308;2023-06-14T04:37:51;24.83;;;17.67;;
55134;SDS011;41031;44.750;11.308;2023-06-14T04:40:20;24.57;;;17.83;;
55134;SDS011;41031;44.750;11.308;2023-06-14T04:42:47;20.40;;;15.37;;
55134;SDS011;41031;44.750;11.308;2023-06-14T04:45:16;25.93;;;16.90;;
55134;SDS011;41031;44.750;11.308;2023-06-14T04:47:44;24.03;;;16.73;;
55134;SDS011;41031;44.750;11.308;2023-06-14T04:50:12;27.33;;;17.20;;
55134;SDS011;41031;44.750;11.308;2023-06-14T04:52:39;21.97;;;16.70;;
55134;SDS011;41031;44.750;11.308;2023-06-14T04:55:10;23.87;;;17.33;;
55134;SDS011;41031;44.750;11.308;2023-06-14T04:57:37;24.50;;;17.60;;
55134;SDS011;41031;44.750;11.308;2023-06-14T05:00:05;27.13;;;17.57;;
55134;SDS011;41031;44.750;11.308;2023-06-14T05:02:33;24.97;;;17.23;;
55134;SDS011;41031;44.750;11.308;2023-06-14T05:05:02;25.47;;;17.50;;
55134;SDS011;41031;44.750;11.308;2023-06-14T05:07:32;24.23;;;16.97;;
55134;SDS011;41031;44.750;11.308;2023-06-14T05:10:00;22.97;;;16.47;;
55134;SDS011;41031;44.750;11.308;2023-06-14T05:12:28;20.67;;;17.40;;
55134;SDS011;41031;44.750;11.308;2023-06-14T05:14:56;21.33;;;16.63;;
55134;SDS011;41031;44.750;11.308;2023-06-14T05:17:26;24.63;;;16.73;;
55134;SDS011;41031;44.750;11.308;2023-06-14T05:19:54;19.10;;;15.47;;
55134;SDS011;41031;44.750;11.308;2023-06-14T05:22:22;21.13;;;14.60;;
55134;SDS011;41031;44.750;11.308;2023-06-14T05:24:49;22.13;;;16.83;;
55134;SDS011;41031;44.750;11.308;2023-06-14T05:27:16;19.97;;;15.00;;
55134;SDS011;41031;44.750;11.308;2023-06-14T05:29:43;19.60;;;14.60;;
55134;SDS011;41031;44.750;11.308;2023-06-14T05:32:11;20.53;;;14.50;;
55134;SDS011;41031;44.750;11.308;2023-06-14T05:34:37;21.50;;;14.73;;
55134;SDS011;41031;44.750;11.308;2023-06-14T05:37:04;19.63;;;14.43;;
55134;SDS011;41031;44.750;11.308;2023-06-14T05:39:32;16.50;;;13.57;;
55134;SDS011;41031;44.750;11.308;2023-06-14T05:41:59;18.97;;;14.90;;
55134;SDS011;41031;44.750;11.308;2023-06-14T05:44:26;22.23;;;15.53;;
55134;SDS011;41031;44.750;11.308;2023-06-14T05:46:53;20.83;;;15.03;;
55134;SDS011;41031;44.750;11.308;2023-06-14T05:49:20;22.90;;;14.77;;
55134;SDS011;41031;44.750;11.308;2023-06-14T05:51:47;19.37;;;15.43;;
55134;SDS011;41031;44.750;11.308;2023-06-14T05:54:14;20.57;;;15.80;;
55134;SDS011;41031;44.750;11.308;2023-06-14T05:56:41;20.47;;;15.83;;
55134;SDS011;41031;44.750;11.308;2023-06-14T05:59:08;18.87;;;15.43;;
55134;SDS011;41031;44.750;11.308;2023-06-14T06:01:35;26.40;;;16.07;;
55134;SDS011;41031;44.750;11.308;2023-06-14T06:04:03;23.27;;;15.37;;
55134;SDS011;41031;44.750;11.308;2023-06-14T06:06:30;45.27;;;18.00;;
55134;SDS011;41031;44.750;11.308;2023-06-14T06:08:57;20.50;;;15.77;;
55134;SDS011;41031;44.750;11.308;2023-06-14T06:11:24;19.73;;;17.17;;
55134;SDS011;41031;44.750;11.308;2023-06-14T06:13:55;20.27;;;15.70;;
55134;SDS011;41031;44.750;11.308;2023-06-14T06:16:23;24.20;;;16.43;;
55134;SDS011;41031;44.750;11.308;2023-06-14T06:18:50;23.13;;;16.87;;
55134;SDS011;41031;44.750;11.308;2023-06-14T06:21:17;23.97;;;16.23;;
55134;SDS011;41031;44.750;11.308;2023-06-14T06:23:44;20.80;;;16.40;;
55134;SDS011;41031;44.750;11.308;2023-06-14T06:26:11;21.53;;;16.13;;
55134;SDS011;41031;44.750;11.308;2023-06-14T06:28:38;28.57;;;16.40;;
55134;SDS011;41031;44.750;11.308;2023-06-14T06:31:05;22.50;;;16.97;;
55134;SDS011;41031;44.750;11.308;2023-06-14T06:33:32;23.23;;;17.63;;
55134;SDS011;41031;44.750;11.308;2023-06-14T06:35:59;21.73;;;17.90;;
55134;SDS011;41031;44.750;11.308;2023-06-14T06:38:26;25.63;;;17.70;;
55134;SDS011;41031;44.750;11.308;2023-06-14T06:40:53;21.33;;;17.80;;
55134;SDS011;41031;44.750;11.308;2023-06-14T06:43:20;25.60;;;18.17;;
55134;SDS011;41031;44.750;11.308;2023-06-14T06:45:48;19.90;;;17.00;;
55134;SDS011;41031;44.750;11.308;2023-06-14T06:48:16;22.23;;;17.00;;
55134;SDS011;41031;44.750;11.308;2023-06-14T06:50:43;21.17;;;18.30;;
55134;SDS011;41031;44.750;11.308;2023-06-14T06:53:10;24.37;;;18.57;;
55134;SDS011;41031;44.750;11.308;2023-06-14T06:55:38;21.10;;;17.83;;
55134;SDS011;41031;44.750;11.308;2023-06-14T06:58:05;25.63;;;19.80;;
55134;SDS011;41031;44.750;11.308;2023-06-14T07:00:32;20.33;;;17.23;;
55134;SDS011;41031;44.750;11.308;2023-06-14T07:02:59;21.60;;;18.67;;
55134;SDS011;41031;44.750;11.308;2023-06-14T07:05:28;23.20;;;19.60;;
55134;SDS011;41031;44.750;11.308;2023-06-14T07:07:55;21.80;;;19.43;;
55134;SDS011;41031;44.750;11.308;2023-06-14T07:10:23;23.03;;;18.50;;
55134;SDS011;41031;44.750;11.308;2023-06-14T07:12:51;24.70;;;19.90;;
55134;SDS011;41031;44.750;11.308;2023-06-14T07:15:18;24.20;;;19.33;;
55134;SDS011;41031;44.750;11.308;2023-06-14T07:17:45;19.83;;;17.53;;
55134;SDS011;41031;44.750;11.308;2023-06-14T07:20:12;22.77;;;18.63;;
55134;SDS011;41031;44.750;11.308;2023-06-14T07:22:40;23.80;;;18.83;;
55134;SDS011;41031;44.750;11.308;2023-06-14T07:25:09;19.20;;;16.77;;
55134;SDS011;41031;44.750;11.308;2023-06-14T07:27:41;21.97;;;18.60;;
55134;SDS011;41031;44.750;11.308;2023-06-14T07:30:09;17.23;;;15.40;;
55134;SDS011;41031;44.750;11.308;2023-06-14T07:32:37;17.63;;;14.87;;
55134;SDS011;41031;44.750;11.308;2023-06-14T07:35:05;25.43;;;15.77;;
55134;SDS011;41031;44.750;11.308;2023-06-14T07:37:33;16.57;;;14.97;;
55134;SDS011;41031;44.750;11.308;2023-06-14T07:40:00;18.30;;;15.00;;
55134;SDS011;41031;44.750;11.308;2023-06-14T07:42:29;18.80;;;14.30;;
55134;SDS011;41031;44.750;11.308;2023-06-14T07:44:56;16.20;;;13.60;;
55134;SDS011;41031;44.750;11.308;2023-06-14T07:47:23;16.50;;;13.37;;
55134;SDS011;41031;44.750;11.308;2023-06-14T07:49:51;15.70;;;13.93;;
55134;SDS011;41031;44.750;11.308;2023-06-14T07:52:18;15.97;;;14.17;;
55134;SDS011;41031;44.750;11.308;2023-06-14T07:54:46;15.10;;;13.50;;
55134;SDS011;41031;44.750;11.308;2023-06-14T07:57:14;15.57;;;13.60;;
55134;SDS011;41031;44.750;11.308;2023-06-14T07:59:41;17.47;;;13.33;;
55134;SDS011;41031;44.750;11.308;2023-06-14T08:02:08;15.27;;;13.57;;
55134;SDS011;41031;44.750;11.308;2023-06-14T08:04:35;19.60;;;14.50;;
55134;SDS011;41031;44.750;11.308;2023-06-14T08:07:02;14.80;;;13.13;;
55134;SDS011;41031;44.750;11.308;2023-06-14T08:09:33;15.30;;;13.10;;
55134;SDS011;41031;44.750;11.308;2023-06-14T08:12:00;14.97;;;12.77;;
55134;SDS011;41031;44.750;11.308;2023-06-14T08:14:27;15.90;;;12.03;;
55134;SDS011;41031;44.750;11.308;2023-06-14T08:16:55;13.50;;;11.77;;
55134;SDS011;41031;44.750;11.308;2023-06-14T08:19:22;12.13;;;10.97;;
55134;SDS011;41031;44.750;11.308;2023-06-14T08:21:49;14.80;;;12.10;;
55134;SDS011;41031;44.750;11.308;2023-06-14T08:24:16;14.43;;;12.50;;
55134;SDS011;41031;44.750;11.308;2023-06-14T08:26:45;17.20;;;13.23;;
55134;SDS011;41031;44.750;11.308;2023-06-14T08:29:12;17.90;;;13.33;;
55134;SDS011;41031;44.750;11.308;2023-06-14T08:31:39;12.73;;;9.73;;
55134;SDS011;41031;44.750;11.308;2023-06-14T08:34:07;12.60;;;9.97;;
55134;SDS011;41031;44.750;11.308;2023-06-14T08:36:34;12.83;;;9.93;;
55134;SDS011;41031;44.750;11.308;2023-06-14T08:39:02;13.17;;;10.93;;
55134;SDS011;41031;44.750;11.308;2023-06-14T08:41:29;13.53;;;11.37;;
55134;SDS011;41031;44.750;11.308;2023-06-14T08:43:57;11.70;;;10.47;;
55134;SDS011;41031;44.750;11.308;2023-06-14T08:46:25;9.70;;;8.80;;
55134;SDS011;41031;44.750;11.308;2023-06-14T08:48:54;9.90;;;8.20;;
55134;SDS011;41031;44.750;11.308;2023-06-14T08:51:25;10.03;;;9.00;;
55134;SDS011;41031;44.750;11.308;2023-06-14T08:53:54;10.67;;;9.57;;
55134;SDS011;41031;44.750;11.308;2023-06-14T08:56:25;10.33;;;7.33;;
55134;SDS011;41031;44.750;11.308;2023-06-14T08:58:54;5.47;;;4.50;;
55134;SDS011;41031;44.750;11.308;2023-06-14T09:01:23;9.20;;;7.27;;
55134;SDS011;41031;44.750;11.308;2023-06-14T09:03:50;9.53;;;6.33;;
55134;SDS011;41031;44.750;11.308;2023-06-14T09:06:18;6.60;;;4.70;;
55134;SDS011;41031;44.750;11.308;2023-06-14T09:08:49;7.03;;;5.07;;
55134;SDS011;41031;44.750;11.308;2023-06-14T09:11:17;6.87;;;6.27;;
55134;SDS011;41031;44.750;11.308;2023-06-14T09:13:46;7.23;;;5.20;;
55134;SDS011;41031;44.750;11.308;2023-06-14T09:16:13;6.77;;;5.73;;
55134;SDS011;41031;44.750;11.308;2023-06-14T09:18:41;8.10;;;5.03;;
55134;SDS011;41031;44.750;11.308;2023-06-14T09:21:15;6.77;;;5.13;;
55134;SDS011;41031;44.750;11.308;2023-06-14T09:23:44;4.70;;;4.30;;
55134;SDS011;41031;44.750;11.308;2023-06-14T09:26:13;6.27;;;4.67;;
55134;SDS011;41031;44.750;11.308;2023-06-14T09:28:48;6.40;;;4.77;;
55134;SDS011;41031;44.750;11.308;2023-06-14T09:31:17;6.00;;;4.63;;
55134;SDS011;41031;44.750;11.308;2023-06-14T09:33:46;5.67;;;5.07;;
55134;SDS011;41031;44.750;11.308;2023-06-14T09:36:15;7.43;;;5.70;;
55134;SDS011;41031;44.750;11.308;2023-06-14T09:39:05;6.53;;;3.77;;
55134;SDS011;41031;44.750;11.308;2023-06-14T09:44:07;3.93;;;3.60;;
55134;SDS011;41031;44.750;11.308;2023-06-14T09:46:42;4.27;;;3.87;;
55134;SDS011;41031;44.750;11.308;2023-06-14T09:49:10;4.10;;;3.23;;
55134;SDS011;41031;44.750;11.308;2023-06-14T09:51:44;5.37;;;3.80;;
55134;SDS011;41031;44.750;11.308;2023-06-14T09:54:16;4.10;;;3.70;;
55134;SDS011;41031;44.750;11.308;2023-06-14T09:56:48;4.70;;;3.63;;
55134;SDS011;41031;44.750;11.308;2023-06-14T09:59:19;4.30;;;3.90;;
55134;SDS011;41031;44.750;11.308;2023-06-14T10:01:53;5.20;;;4.70;;
55134;SDS011;41031;44.750;11.308;2023-06-14T10:04:24;5.03;;;3.63;;
55134;SDS011;41031;44.750;11.308;2023-06-14T10:06:51;7.27;;;3.47;;
55134;SDS011;41031;44.750;11.308;2023-06-14T10:09:20;4.57;;;3.23;;
55134;SDS011;41031;44.750;11.308;2023-06-14T10:11:48;4.33;;;3.30;;
55134;SDS011;41031;44.750;11.308;2023-06-14T10:14:16;6.03;;;3.60;;
55134;SDS011;41031;44.750;11.308;2023-06-14T10:16:52;7.33;;;3.67;;
55134;SDS011;41031;44.750;11.308;2023-06-14T10:22:19;6.70;;;4.07;;
55134;SDS011;41031;44.750;11.308;2023-06-14T10:24:52;3.73;;;2.80;;
55134;SDS011;41031;44.750;11.308;2023-06-14T10:27:19;3.40;;;3.10;;
55134;SDS011;41031;44.750;11.308;2023-06-14T10:32:20;5.10;;;3.30;;
55134;SDS011;41031;44.750;11.308;2023-06-14T10:34:55;4.67;;;3.30;;
55134;SDS011;41031;44.750;11.308;2023-06-14T10:37:25;3.57;;;3.10;;
55134;SDS011;41031;44.750;11.308;2023-06-14T10:39:53;4.07;;;3.40;;
55134;SDS011;41031;44.750;11.308;2023-06-14T10:42:20;6.80;;;3.17;;
55134;SDS011;41031;44.750;11.308;2023-06-14T10:44:58;6.73;;;3.30;;
55134;SDS011;41031;44.750;11.308;2023-06-14T10:47:35;6.83;;;3.50;;
55134;SDS011;41031;44.750;11.308;2023-06-14T10:50:05;4.47;;;3.43;;
55134;SDS011;41031;44.750;11.308;2023-06-14T10:52:38;4.10;;;3.57;;
55134;SDS011;41031;44.750;11.308;2023-06-14T10:55:12;4.33;;;2.60;;
55134;SDS011;41031;44.750;11.308;2023-06-14T10:57:46;3.33;;;3.03;;
55134;SDS011;41031;44.750;11.308;2023-06-14T11:00:20;3.67;;;3.20;;
55134;SDS011;41031;44.750;11.308;2023-06-14T11:05:50;3.70;;;3.40;;
55134;SDS011;41031;44.750;11.308;2023-06-14T11:11:23;4.90;;;3.23;;
55134;SDS011;41031;44.750;11.308;2023-06-14T11:13:56;3.37;;;3.07;;
55134;SDS011;41031;44.750;11.308;2023-06-14T11:16:25;5.67;;;2.60;;
55134;SDS011;41031;44.750;11.308;2023-06-14T11:18:53;5.37;;;3.03;;
55134;SDS011;41031;44.750;11.308;2023-06-14T11:21:21;2.40;;;2.20;;
55134;SDS011;41031;44.750;11.308;2023-06-14T11:23:48;2.83;;;2.50;;
55134;SDS011;41031;44.750;11.308;2023-06-14T11:26:23;3.13;;;2.83;;
55134;SDS011;41031;44.750;11.308;2023-06-14T11:28:55;2.37;;;2.17;;
55134;SDS011;41031;44.750;11.308;2023-06-14T11:31:24;3.20;;;2.90;;
55134;SDS011;41031;44.750;11.308;2023-06-14T11:33:55;6.53;;;2.73;;
55134;SDS011;41031;44.750;11.308;2023-06-14T11:36:27;5.47;;;2.33;;
55134;SDS011;41031;44.750;11.308;2023-06-14T11:39:01;2.73;;;2.53;;
55134;SDS011;41031;44.750;11.308;2023-06-14T11:41:35;5.03;;;2.80;;
55134;SDS011;41031;44.750;11.308;2023-06-14T11:44:04;3.90;;;3.00;;
55134;SDS011;41031;44.750;11.308;2023-06-14T11:46:32;3.30;;;3.00;;
55134;SDS011;41031;44.750;11.308;2023-06-14T11:49:01;6.77;;;3.13;;
55134;SDS011;41031;44.750;11.308;2023-06-14T11:51:34;3.60;;;2.93;;
55134;SDS011;41031;44.750;11.308;2023-06-14T11:54:02;5.77;;;2.80;;
55134;SDS011;41031;44.750;11.308;2023-06-14T11:56:33;2.63;;;2.43;;
55134;SDS011;41031;44.750;11.308;2023-06-14T11:59:02;4.03;;;3.20;;
55134;SDS011;41031;44.750;11.308;2023-06-14T12:01:35;4.03;;;2.67;;
55134;SDS011;41031;44.750;11.308;2023-06-14T12:04:03;3.83;;;3.07;;
55134;SDS011;41031;44.750;11.308;2023-06-14T12:06:30;4.23;;;2.80;;
55134;SDS011;41031;44.750;11.308;2023-06-14T12:09:06;3.97;;;2.90;;
55134;SDS011;41031;44.750;11.308;2023-06-14T12:11:39;4.17;;;2.73;;
55134;SDS011;41031;44.750;11.308;2023-06-14T12:14:07;3.80;;;2.50;;
55134;SDS011;41031;44.750;11.308;2023-06-14T12:16:37;4.70;;;2.87;;
55134;SDS011;41031;44.750;11.308;2023-06-14T12:19:12;5.53;;;3.23;;
55134;SDS011;41031;44.750;11.308;2023-06-14T12:21:41;3.70;;;2.33;;
55134;SDS011;41031;44.750;11.308;2023-06-14T12:24:09;3.50;;;3.13;;
55134;SDS011;41031;44.750;11.308;2023-06-14T12:26:39;3.57;;;3.27;;
55134;SDS011;41031;44.750;11.308;2023-06-14T12:29:07;5.10;;;3.30;;
55134;SDS011;41031;44.750;11.308;2023-06-14T12:31:35;3.40;;;3.10;;
55134;SDS011;41031;44.750;11.308;2023-06-14T12:34:03;3.37;;;2.97;;
55134;SDS011;41031;44.750;11.308;2023-06-14T12:36:30;3.57;;;3.10;;
55134;SDS011;41031;44.750;11.308;2023-06-14T12:38:58;3.13;;;2.83;;
55134;SDS011;41031;44.750;11.308;2023-06-14T12:41:26;5.20;;;2.77;;
55134;SDS011;41031;44.750;11.308;2023-06-14T12:43:53;5.70;;;2.87;;
55134;SDS011;41031;44.750;11.308;2023-06-14T12:46:20;5.07;;;3.27;;
55134;SDS011;41031;44.750;11.308;2023-06-14T12:48:48;3.90;;;2.90;;
55134;SDS011;41031;44.750;11.308;2023-06-14T12:51:15;4.37;;;3.40;;
55134;SDS011;41031;44.750;11.308;2023-06-14T12:53:42;4.43;;;2.90;;
55134;SDS011;41031;44.750;11.308;2023-06-14T12:56:10;3.97;;;2.87;;
55134;SDS011;41031;44.750;11.308;2023-06-14T12:58:37;3.23;;;2.97;;
55134;SDS011;41031;44.750;11.308;2023-06-14T13:01:04;4.30;;;2.53;;
55134;SDS011;41031;44.750;11.308;2023-06-14T13:03:31;2.90;;;2.67;;
55134;SDS011;41031;44.750;11.308;2023-06-14T13:06:00;4.53;;;2.70;;
55134;SDS011;41031;44.750;11.308;2023-06-14T13:08:28;5.03;;;3.03;;
55134;SDS011;41031;44.750;11.308;2023-06-14T13:10:55;3.20;;;2.90;;
55134;SDS011;41031;44.750;11.308;2023-06-14T13:13:22;3.27;;;2.97;;
55134;SDS011;41031;44.750;11.308;2023-06-14T13:15:49;3.20;;;2.90;;
55134;SDS011;41031;44.750;11.308;2023-06-14T13:18:17;4.97;;;3.30;;
55134;SDS011;41031;44.750;11.308;2023-06-14T13:20:45;3.87;;;3.10;;
55134;SDS011;41031;44.750;11.308;2023-06-14T13:23:13;3.33;;;3.03;;
55134;SDS011;41031;44.750;11.308;2023-06-14T13:25:41;4.07;;;2.93;;
55134;SDS011;41031;44.750;11.308;2023-06-14T13:28:09;5.87;;;3.23;;
55134;SDS011;41031;44.750;11.308;2023-06-14T13:30:36;3.80;;;3.30;;
55134;SDS011;41031;44.750;11.308;2023-06-14T13:33:03;3.13;;;2.83;;
55134;SDS011;41031;44.750;11.308;2023-06-14T13:35:31;4.73;;;2.80;;
55134;SDS011;41031;44.750;11.308;2023-06-14T13:37:58;4.23;;;3.10;;
55134;SDS011;41031;44.750;11.308;2023-06-14T13:40:25;4.53;;;2.67;;
55134;SDS011;41031;44.750;11.308;2023-06-14T13:42:52;4.30;;;2.93;;
55134;SDS011;41031;44.750;11.308;2023-06-14T13:45:19;6.63;;;2.80;;
55134;SDS011;41031;44.750;11.308;2023-06-14T13:47:46;3.03;;;2.73;;
55134;SDS011;41031;44.750;11.308;2023-06-14T13:50:15;3.10;;;2.70;;
55134;SDS011;41031;44.750;11.308;2023-06-14T13:52:43;3.87;;;3.20;;
55134;SDS011;41031;44.750;11.308;2023-06-14T13:55:10;4.03;;;3.63;;
55134;SDS011;41031;44.750;11.308;2023-06-14T13:57:37;4.80;;;3.30;;
55134;SDS011;41031;44.750;11.308;2023-06-14T14:00:04;5.13;;;3.60;;
55134;SDS011;41031;44.750;11.308;2023-06-14T14:02:40;6.53;;;3.77;;
55134;SDS011;41031;44.750;11.308;2023-06-14T14:05:08;3.70;;;3.40;;
55134;SDS011;41031;44.750;11.308;2023-06-14T14:07:35;7.77;;;3.63;;
55134;SDS011;41031;44.750;11.308;2023-06-14T14:10:03;4.67;;;3.23;;
55134;SDS011;41031;44.750;11.308;2023-06-14T14:12:30;4.50;;;3.30;;
55134;SDS011;41031;44.750;11.308;2023-06-14T14:14:57;10.23;;;4.23;;
55134;SDS011;41031;44.750;11.308;2023-06-14T14:17:24;5.73;;;4.03;;
55134;SDS011;41031;44.750;11.308;2023-06-14T14:19:52;4.77;;;3.70;;
55134;SDS011;41031;44.750;11.308;2023-06-14T14:22:19;3.97;;;3.67;;
55134;SDS011;41031;44.750;11.308;2023-06-14T14:24:46;7.30;;;3.47;;
55134;SDS011;41031;44.750;11.308;2023-06-14T14:27:13;3.43;;;3.17;;
55134;SDS011;41031;44.750;11.308;2023-06-14T14:29:40;4.17;;;3.77;;
55134;SDS011;41031;44.750;11.308;2023-06-14T14:32:07;8.90;;;3.63;;
55134;SDS011;41031;44.750;11.308;2023-06-14T14:34:37;5.97;;;4.00;;
55134;SDS011;41031;44.750;11.308;2023-06-14T14:37:04;4.40;;;4.00;;
55134;SDS011;41031;44.750;11.308;2023-06-14T14:39:31;6.63;;;3.60;;
55134;SDS011;41031;44.750;11.308;2023-06-14T14:41:58;5.70;;;3.60;;
55134;SDS011;41031;44.750;11.308;2023-06-14T14:44:26;4.00;;;3.67;;
55134;SDS011;41031;44.750;11.308;2023-06-14T14:46:53;5.23;;;3.33;;